createdAt,value
2023-05-07T00:01:42.470Z,2.88
2023-05-07T00:04:11.278Z,3.08
2023-05-07T00:06:41.733Z,2.90
2023-05-07T00:09:09.871Z,2.80
2023-05-07T00:11:38.157Z,2.65
2023-05-07T00:14:06.451Z,3.08
2023-05-07T00:16:34.801Z,3.08
2023-05-07T00:19:03.044Z,3.20
2023-05-07T00:21:31.529Z,2.40
2023-05-07T00:24:01.131Z,3.00
2023-05-07T00:26:29.301Z,3.63
2023-05-07T00:28:58.139Z,3.45
2023-05-07T00:31:26.346Z,3.00
2023-05-07T00:33:54.539Z,3.13
2023-05-07T00:36:22.678Z,2.83
2023-05-07T00:38:50.853Z,3.20
2023-05-07T00:41:21.030Z,3.17
2023-05-07T00:43:49.597Z,3.15
2023-05-07T00:46:17.932Z,3.22
2023-05-07T00:48:47.097Z,3.38
2023-05-07T00:51:16.268Z,2.60
2023-05-07T00:53:45.120Z,3.33
2023-05-07T00:56:14.071Z,3.08
2023-05-07T00:58:44.121Z,3.10
2023-05-07T01:01:12.394Z,2.78
2023-05-07T01:03:40.772Z,2.83
2023-05-07T01:06:13.604Z,2.78
2023-05-07T01:08:44.058Z,2.90
2023-05-07T01:11:13.476Z,3.10
2023-05-07T01:13:43.689Z,3.13
2023-05-07T01:16:12.409Z,2.63
2023-05-07T01:18:41.207Z,3.13
2023-05-07T01:21:13.196Z,3.40
2023-05-07T01:23:43.527Z,3.08
2023-05-07T01:26:11.735Z,3.15
2023-05-07T01:28:40.409Z,3.67
2023-05-07T01:31:11.258Z,2.90
2023-05-07T01:33:43.562Z,3.15
2023-05-07T01:36:13.384Z,3.60
2023-05-07T01:38:44.430Z,3.53
2023-05-07T01:41:13.999Z,2.92
2023-05-07T01:43:43.575Z,3.17
2023-05-07T01:46:12.877Z,2.55
2023-05-07T01:48:41.508Z,2.63
2023-05-07T01:51:10.878Z,2.10
2023-05-07T01:53:39.301Z,2.67
2023-05-07T01:56:09.692Z,3.03
2023-05-07T01:58:40.783Z,2.45
2023-05-07T02:01:10.081Z,2.35
2023-05-07T02:03:38.841Z,2.72
2023-05-07T02:06:13.950Z,2.83
2023-05-07T02:08:42.259Z,2.85
2023-05-07T02:11:12.889Z,2.55
2023-05-07T02:13:41.099Z,2.88
2023-05-07T02:16:09.584Z,3.05
2023-05-07T02:18:37.750Z,2.90
2023-05-07T02:21:06.115Z,3.00
2023-05-07T02:23:34.462Z,3.15
2023-05-07T02:26:03.132Z,3.28
2023-05-07T02:28:32.665Z,3.60
2023-05-07T02:31:05.973Z,3.60
2023-05-07T02:33:35.884Z,3.17
2023-05-07T02:36:10.006Z,3.45
2023-05-07T02:38:43.129Z,2.70
2023-05-07T02:41:11.995Z,3.38
2023-05-07T02:43:41.553Z,3.25
2023-05-07T02:46:11.350Z,2.72
2023-05-07T02:48:43.993Z,2.95
2023-05-07T02:51:12.190Z,2.57
2023-05-07T02:53:42.921Z,2.33
2023-05-07T02:56:11.097Z,2.65
2023-05-07T02:58:40.949Z,3.22
2023-05-07T03:01:09.906Z,3.03
2023-05-07T03:03:54.776Z,2.65
2023-05-07T03:06:23.005Z,2.78
2023-05-07T03:08:51.141Z,3.05
2023-05-07T03:11:19.351Z,2.50
2023-05-07T03:13:50.405Z,3.17
2023-05-07T03:16:20.179Z,2.72
2023-05-07T03:18:48.444Z,3.03
2023-05-07T03:21:16.840Z,2.90
2023-05-07T03:23:44.998Z,3.00
2023-05-07T03:26:13.179Z,2.97
2023-05-07T03:28:41.293Z,2.90
2023-05-07T03:31:15.217Z,2.92
2023-05-07T03:33:53.783Z,2.95
2023-05-07T03:36:22.632Z,3.47
2023-05-07T03:38:51.905Z,3.13
2023-05-07T03:41:22.846Z,2.97
2023-05-07T03:43:51.133Z,2.90
2023-05-07T03:46:20.800Z,3.42
2023-05-07T03:48:49.048Z,3.05
2023-05-07T03:51:18.324Z,3.50
2023-05-07T03:53:46.484Z,3.22
2023-05-07T03:56:14.654Z,3.28
2023-05-07T03:58:43.724Z,3.38
2023-05-07T04:01:13.410Z,2.90
2023-05-07T04:03:43.162Z,3.10
2023-05-07T04:06:11.589Z,3.87
2023-05-07T04:08:39.923Z,2.95
2023-05-07T04:11:09.324Z,3.00
2023-05-07T04:13:39.074Z,2.85
2023-05-07T04:16:10.234Z,3.78
2023-05-07T04:18:40.035Z,2.92
2023-05-07T04:21:16.950Z,3.30
2023-05-07T04:23:45.689Z,3.13
2023-05-07T04:26:16.604Z,2.83
2023-05-07T04:28:46.276Z,3.20
2023-05-07T04:31:14.610Z,3.47
2023-05-07T04:33:42.917Z,3.55
2023-05-07T04:36:15.606Z,3.20
2023-05-07T04:38:52.680Z,3.25
2023-05-07T04:41:22.103Z,3.57
2023-05-07T04:43:50.863Z,3.25
2023-05-07T04:46:21.414Z,3.75
2023-05-07T04:48:51.359Z,3.75
2023-05-07T04:51:20.868Z,4.73
2023-05-07T04:53:50.316Z,3.83
2023-05-07T04:56:18.538Z,3.45
2023-05-07T04:58:48.364Z,3.50
2023-05-07T05:01:19.366Z,4.07
2023-05-07T05:03:47.696Z,4.32
2023-05-07T05:06:16.259Z,4.10
2023-05-07T05:08:45.869Z,3.75
2023-05-07T05:11:14.411Z,3.92
2023-05-07T05:13:42.767Z,4.40
2023-05-07T05:16:15.928Z,3.92
2023-05-07T05:18:44.423Z,4.60
2023-05-07T05:21:14.718Z,3.72
2023-05-07T05:23:47.330Z,3.83
2023-05-07T05:26:19.612Z,4.00
2023-05-07T05:28:47.856Z,4.72
2023-05-07T05:31:18.430Z,3.38
2023-05-07T05:33:47.276Z,4.30
2023-05-07T05:36:15.504Z,5.30
2023-05-07T05:38:47.096Z,4.47
2023-05-07T05:41:16.032Z,4.57
2023-05-07T05:43:44.213Z,3.83
2023-05-07T05:46:13.205Z,4.57
2023-05-07T05:48:41.519Z,5.07
2023-05-07T05:51:10.538Z,5.22
2023-05-07T05:53:38.734Z,5.72
2023-05-07T05:56:10.042Z,5.88
2023-05-07T05:58:40.287Z,5.10
2023-05-07T06:01:09.975Z,5.82
2023-05-07T06:03:39.461Z,5.70
2023-05-07T06:06:15.418Z,6.10
2023-05-07T06:08:44.739Z,6.25
2023-05-07T06:11:16.984Z,5.90
2023-05-07T06:13:47.760Z,5.75
2023-05-07T06:16:16.786Z,5.97
2023-05-07T06:18:46.325Z,5.78
2023-05-07T06:21:16.241Z,6.63
2023-05-07T06:23:44.767Z,6.28
2023-05-07T06:26:13.030Z,5.97
2023-05-07T06:28:45.210Z,6.10
2023-05-07T06:31:16.872Z,6.57
2023-05-07T06:33:49.934Z,5.85
2023-05-07T06:36:18.391Z,6.35
2023-05-07T06:38:48.292Z,6.50
2023-05-07T06:41:17.452Z,6.75
2023-05-07T06:43:47.299Z,6.05
2023-05-07T06:46:53.885Z,6.68
2023-05-07T06:49:22.337Z,6.47
2023-05-07T06:51:51.418Z,6.45
2023-05-07T06:54:21.272Z,6.07
2023-05-07T06:56:49.606Z,6.32
2023-05-07T06:59:20.309Z,6.15
2023-05-07T07:01:48.729Z,7.28
2023-05-07T07:04:17.859Z,6.25
2023-05-07T07:06:50.928Z,6.57
2023-05-07T07:09:19.211Z,6.18
2023-05-07T07:11:47.452Z,6.18
2023-05-07T07:14:15.882Z,6.05
2023-05-07T07:16:50.965Z,6.55
2023-05-07T07:19:21.312Z,5.88
2023-05-07T07:21:52.015Z,5.45
2023-05-07T07:24:22.272Z,6.30
2023-05-07T07:26:56.257Z,6.25
2023-05-07T07:29:27.538Z,5.72
2023-05-07T07:31:58.553Z,6.13
2023-05-07T07:34:27.019Z,5.22
2023-05-07T07:36:55.316Z,5.32
2023-05-07T07:39:23.524Z,5.70
2023-05-07T07:41:55.382Z,5.63
2023-05-07T07:44:24.142Z,5.90
2023-05-07T07:47:01.487Z,4.88
2023-05-07T07:49:30.546Z,4.90
2023-05-07T07:52:01.658Z,4.93
2023-05-07T07:54:31.254Z,5.18
2023-05-07T07:57:00.018Z,4.55
2023-05-07T07:59:28.682Z,5.20
2023-05-07T08:01:58.062Z,5.10
2023-05-07T08:04:29.770Z,5.60
2023-05-07T08:06:59.638Z,4.97
2023-05-07T08:09:28.045Z,4.65
2023-05-07T08:11:57.908Z,4.38
2023-05-07T08:14:26.300Z,5.38
2023-05-07T08:16:54.845Z,5.00
2023-05-07T08:19:23.788Z,4.70
2023-05-07T08:21:54.041Z,4.32
2023-05-07T08:24:24.247Z,5.45
2023-05-07T08:26:52.637Z,4.70
2023-05-07T08:29:21.282Z,4.10
2023-05-07T08:31:49.609Z,4.38
2023-05-07T08:34:17.834Z,4.40
2023-05-07T08:36:49.433Z,4.38
2023-05-07T08:39:22.057Z,4.15
2023-05-07T08:41:58.880Z,4.10
2023-05-07T08:44:30.313Z,4.25
2023-05-07T08:47:03.403Z,4.63
2023-05-07T08:49:33.535Z,8.40
2023-05-07T08:52:02.679Z,4.40
2023-05-07T08:54:34.210Z,4.47
2023-05-07T08:57:03.672Z,4.15
2023-05-07T08:59:32.788Z,4.10
2023-05-07T09:02:01.441Z,4.95
2023-05-07T09:04:30.094Z,3.78
2023-05-07T09:07:04.616Z,4.25
2023-05-07T09:09:35.489Z,4.25
2023-05-07T09:12:06.229Z,4.28
2023-05-07T09:14:36.138Z,4.05
2023-05-07T09:17:05.801Z,4.20
2023-05-07T09:19:33.930Z,3.58
2023-05-07T09:22:08.002Z,3.70
2023-05-07T09:24:51.107Z,3.72
2023-05-07T09:27:21.887Z,3.70
2023-05-07T09:29:50.079Z,4.10
2023-05-07T09:32:18.851Z,3.40
2023-05-07T09:34:48.174Z,3.72
2023-05-07T09:37:18.717Z,2.90
2023-05-07T09:39:52.522Z,2.95
2023-05-07T09:42:27.521Z,3.45
2023-05-07T09:44:58.641Z,3.33
2023-05-07T09:47:37.769Z,3.35
2023-05-07T09:50:12.536Z,3.08
2023-05-07T09:52:43.628Z,3.28
2023-05-07T09:55:15.729Z,3.38
2023-05-07T09:57:46.401Z,3.25
2023-05-07T10:00:16.890Z,3.40
2023-05-07T10:02:54.206Z,3.33
2023-05-07T10:05:35.760Z,2.83
2023-05-07T10:08:05.137Z,3.63
2023-05-07T10:10:37.299Z,2.80
2023-05-07T10:13:11.676Z,3.28
2023-05-07T10:15:43.773Z,3.13
2023-05-07T10:18:14.470Z,2.80
2023-05-07T10:20:47.354Z,2.55
2023-05-07T10:23:20.273Z,2.75
2023-05-07T10:25:53.784Z,2.45
2023-05-07T10:28:27.903Z,2.70
2023-05-07T10:31:12.765Z,2.63
2023-05-07T10:33:49.025Z,2.58
2023-05-07T10:36:20.562Z,2.58
2023-05-07T10:38:49.356Z,2.13
2023-05-07T10:41:19.903Z,2.28
2023-05-07T10:43:49.282Z,2.55
2023-05-07T10:46:28.209Z,2.50
2023-05-07T10:49:15.118Z,2.33
2023-05-07T10:52:16.740Z,2.42
2023-05-07T10:55:25.884Z,2.28
2023-05-07T10:58:32.789Z,1.80
2023-05-07T11:01:52.657Z,2.17
2023-05-07T11:04:28.696Z,2.60
2023-05-07T11:07:32.130Z,1.80
2023-05-07T11:10:11.848Z,2.00
2023-05-07T11:12:57.510Z,2.20
2023-05-07T11:15:46.862Z,2.53
2023-05-07T11:18:24.542Z,2.38
2023-05-07T11:20:57.746Z,2.58
2023-05-07T11:24:02.641Z,1.88
2023-05-07T11:26:49.545Z,2.05
2023-05-07T11:29:22.278Z,2.13
2023-05-07T11:31:58.782Z,1.83
2023-05-07T11:34:31.818Z,1.88
2023-05-07T11:37:01.806Z,1.88
2023-05-07T11:39:49.147Z,1.95
2023-05-07T11:42:31.026Z,2.25
2023-05-07T11:44:59.693Z,1.52
2023-05-07T11:47:32.940Z,2.33
2023-05-07T11:50:08.312Z,2.17
2023-05-07T11:52:37.499Z,1.98
2023-05-07T11:55:06.731Z,2.10
2023-05-07T11:57:36.187Z,1.77
2023-05-07T12:00:09.025Z,1.60
2023-05-07T12:02:44.806Z,1.65
2023-05-07T12:05:13.633Z,1.90
2023-05-07T12:07:42.475Z,1.67
2023-05-07T12:10:13.722Z,1.88
2023-05-07T12:12:42.999Z,1.95
2023-05-07T12:15:12.460Z,1.60
2023-05-07T12:17:41.946Z,1.60
2023-05-07T12:20:12.939Z,1.50
2023-05-07T12:22:41.349Z,1.63
2023-05-07T12:25:10.878Z,1.70
2023-05-07T12:27:41.225Z,1.48
2023-05-07T12:30:13.611Z,1.65
2023-05-07T12:32:41.983Z,1.40
2023-05-07T12:35:12.068Z,1.38
2023-05-07T12:37:40.637Z,1.60
2023-05-07T12:40:12.062Z,1.52
2023-05-07T12:42:43.320Z,1.50
2023-05-07T12:45:12.886Z,1.45
2023-05-07T12:47:41.638Z,1.52
2023-05-07T12:50:12.425Z,1.63
2023-05-07T12:52:41.408Z,1.80
2023-05-07T12:55:11.536Z,1.70
2023-05-07T12:57:44.334Z,1.73
2023-05-07T13:00:14.182Z,1.73
2023-05-07T13:02:45.470Z,1.80
2023-05-07T13:05:15.419Z,1.70
2023-05-07T13:07:54.878Z,2.10
2023-05-07T13:10:24.614Z,1.67
2023-05-07T13:12:53.669Z,1.90
2023-05-07T13:15:23.057Z,2.00
2023-05-07T13:17:51.366Z,1.88
2023-05-07T13:20:21.292Z,2.08
2023-05-07T13:22:49.418Z,1.50
2023-05-07T13:25:17.721Z,1.70
2023-05-07T13:27:46.716Z,1.58
2023-05-07T13:30:16.361Z,1.80
2023-05-07T13:32:44.959Z,2.22
2023-05-07T13:35:13.276Z,1.98
2023-05-07T13:37:43.016Z,2.00
2023-05-07T13:40:12.923Z,1.95
2023-05-07T13:42:42.278Z,2.15
2023-05-07T13:45:14.974Z,1.50
2023-05-07T13:47:43.254Z,1.90
2023-05-07T13:50:14.489Z,1.70
2023-05-07T13:52:47.286Z,2.83
2023-05-07T13:55:15.528Z,5.13
2023-05-07T13:57:43.739Z,2.25
2023-05-07T14:00:14.084Z,1.67
2023-05-07T14:02:45.286Z,1.67
2023-05-07T14:05:14.474Z,1.92
2023-05-07T14:07:44.009Z,1.67
2023-05-07T14:10:14.263Z,1.70
2023-05-07T14:12:42.655Z,2.05
2023-05-07T14:15:12.685Z,2.17
2023-05-07T14:17:41.048Z,1.75
2023-05-07T14:20:11.637Z,1.75
2023-05-07T14:22:40.602Z,2.05
2023-05-07T14:25:12.389Z,2.00
2023-05-07T14:27:40.644Z,1.77
2023-05-07T14:30:10.549Z,2.10
2023-05-07T14:32:38.883Z,1.88
2023-05-07T14:35:07.814Z,1.90
2023-05-07T14:37:36.112Z,2.00
2023-05-07T14:40:04.386Z,2.15
2023-05-07T14:42:33.909Z,2.00
2023-05-07T14:45:02.025Z,2.45
2023-05-07T14:47:30.271Z,2.47
2023-05-07T14:50:02.136Z,2.40
2023-05-07T14:52:30.487Z,2.28
2023-05-07T14:54:58.715Z,1.95
2023-05-07T14:57:26.859Z,2.72
2023-05-07T14:59:56.458Z,2.70
2023-05-07T15:02:24.823Z,3.10
2023-05-07T15:04:53.102Z,2.72
2023-05-07T15:07:21.243Z,2.92
2023-05-07T15:09:49.424Z,2.60
2023-05-07T15:12:17.776Z,2.40
2023-05-07T15:14:45.973Z,2.30
2023-05-07T15:17:16.860Z,2.70
2023-05-07T15:19:44.944Z,2.47
2023-05-07T15:22:13.105Z,2.75
2023-05-07T15:24:42.154Z,2.72
2023-05-07T15:27:10.350Z,2.80
2023-05-07T15:29:38.477Z,2.45
2023-05-07T15:32:07.751Z,2.72
2023-05-07T15:34:37.309Z,2.72
2023-05-07T15:37:05.620Z,3.05
2023-05-07T15:39:33.810Z,3.20
2023-05-07T15:42:02.339Z,3.10
2023-05-07T15:44:34.813Z,3.20
2023-05-07T15:47:03.887Z,2.92
2023-05-07T15:49:32.133Z,3.17
2023-05-07T15:52:02.316Z,3.08
2023-05-07T15:54:30.486Z,3.15
2023-05-07T15:56:58.631Z,3.33
2023-05-07T15:59:26.750Z,4.10
2023-05-07T16:01:55.348Z,3.28
2023-05-07T16:04:23.497Z,3.40
2023-05-07T16:06:52.261Z,3.78
2023-05-07T16:09:21.955Z,4.20
2023-05-07T16:11:50.399Z,3.42
2023-05-07T16:14:20.251Z,4.20
2023-05-07T16:16:48.436Z,3.85
2023-05-07T16:19:16.802Z,4.07
2023-05-07T16:21:45.085Z,3.45
2023-05-07T16:24:13.848Z,2.72
2023-05-07T16:26:43.452Z,3.28
2023-05-07T16:29:11.672Z,7.43
2023-05-07T16:31:39.924Z,3.67
2023-05-07T16:34:08.107Z,3.75
2023-05-07T16:36:36.286Z,4.55
2023-05-07T16:39:04.754Z,3.95
2023-05-07T16:41:34.231Z,4.00
2023-05-07T16:44:04.358Z,4.07
2023-05-07T16:46:32.936Z,4.80
2023-05-07T16:49:01.112Z,6.65
2023-05-07T16:51:29.267Z,6.88
2023-05-07T16:53:57.442Z,5.10
2023-05-07T16:56:26.390Z,3.95
2023-05-07T16:58:54.539Z,4.63
2023-05-07T17:01:24.020Z,4.63
2023-05-07T17:03:52.267Z,7.85
2023-05-07T17:06:20.465Z,4.57
2023-05-07T17:08:48.611Z,4.35
2023-05-07T17:11:16.741Z,9.25
2023-05-07T17:13:44.896Z,5.90
2023-05-07T17:16:13.076Z,4.38
2023-05-07T17:18:42.745Z,4.72
2023-05-07T17:21:10.866Z,4.75
2023-05-07T17:23:39.021Z,3.70
2023-05-07T17:26:13.680Z,4.07
2023-05-07T17:28:42.142Z,3.70
2023-05-07T17:31:10.485Z,4.22
2023-05-07T17:33:38.767Z,3.67
2023-05-07T17:36:08.724Z,3.40
2023-05-07T17:38:36.986Z,3.53
2023-05-07T17:41:05.164Z,3.80
2023-05-07T17:43:33.333Z,4.28
2023-05-07T17:46:02.917Z,3.97
2023-05-07T17:48:31.164Z,3.50
2023-05-07T17:51:03.146Z,3.58
2023-05-07T17:53:33.146Z,3.70
2023-05-07T17:56:01.337Z,3.13
2023-05-07T17:58:29.490Z,2.70
2023-05-07T18:00:57.848Z,2.95
2023-05-07T18:03:26.447Z,3.22
2023-05-07T18:05:57.667Z,3.00
2023-05-07T18:08:25.982Z,3.00
2023-05-07T18:10:55.715Z,3.33
2023-05-07T18:13:25.088Z,3.38
2023-05-07T18:15:53.740Z,3.58
2023-05-07T18:18:21.896Z,3.67
2023-05-07T18:20:53.128Z,3.53
2023-05-07T18:23:21.325Z,3.70
2023-05-07T18:25:49.473Z,3.47
2023-05-07T18:28:19.368Z,3.53
2023-05-07T18:30:47.560Z,3.30
2023-05-07T18:33:18.331Z,3.58
2023-05-07T18:35:46.482Z,3.58
2023-05-07T18:38:17.422Z,3.25
2023-05-07T18:40:45.650Z,3.15
2023-05-07T18:43:14.035Z,3.40
2023-05-07T18:45:43.619Z,3.85
2023-05-07T18:48:12.031Z,3.30
2023-05-07T18:50:43.812Z,3.45
2023-05-07T18:53:12.183Z,3.92
2023-05-07T18:55:40.505Z,3.63
2023-05-07T18:58:08.756Z,3.53
2023-05-07T19:00:36.949Z,4.32
2023-05-07T19:03:06.514Z,3.38
2023-05-07T19:05:34.753Z,4.05
2023-05-07T19:08:02.966Z,3.88
2023-05-07T19:10:31.198Z,4.53
2023-05-07T19:13:01.763Z,4.20
2023-05-07T19:15:30.100Z,3.80
2023-05-07T19:17:58.369Z,3.55
2023-05-07T19:20:28.092Z,3.92
2023-05-07T19:22:56.350Z,4.20
2023-05-07T19:25:27.975Z,4.68
2023-05-07T19:27:57.174Z,3.58
2023-05-07T19:30:25.655Z,4.55
2023-05-07T19:32:53.962Z,4.35
2023-05-07T19:35:22.693Z,4.50
2023-05-07T19:37:52.282Z,4.03
2023-05-07T19:40:20.615Z,4.13
2023-05-07T19:42:48.765Z,4.03
2023-05-07T19:45:17.308Z,4.50
2023-05-07T19:47:45.599Z,4.63
2023-05-07T19:50:14.135Z,4.10
2023-05-07T19:52:42.392Z,5.20
2023-05-07T19:55:12.728Z,4.57
2023-05-07T19:57:41.598Z,3.97
2023-05-07T20:00:11.640Z,4.57
2023-05-07T20:02:42.819Z,4.78
2023-05-07T20:05:13.798Z,5.43
2023-05-07T20:07:44.290Z,5.00
2023-05-07T20:10:14.454Z,5.00
2023-05-07T20:12:42.908Z,6.32
2023-05-07T20:15:12.466Z,6.40
2023-05-07T20:17:40.763Z,5.38
2023-05-07T20:20:11.166Z,5.65
2023-05-07T20:22:39.547Z,5.28
2023-05-07T20:25:10.414Z,4.72
2023-05-07T20:27:39.957Z,4.90
2023-05-07T20:30:09.743Z,5.13
2023-05-07T20:32:38.002Z,4.65
2023-05-07T20:35:07.184Z,5.10
2023-05-07T20:37:36.016Z,5.80
2023-05-07T20:40:05.501Z,5.07
2023-05-07T20:42:33.748Z,5.07
2023-05-07T20:45:04.179Z,4.72
2023-05-07T20:47:33.746Z,4.82
2023-05-07T20:50:02.155Z,5.18
2023-05-07T20:52:30.374Z,5.00
2023-05-07T20:54:58.571Z,5.13
2023-05-07T20:57:26.789Z,4.93
2023-05-07T20:59:55.104Z,4.78
2023-05-07T21:02:24.698Z,4.53
2023-05-07T21:04:52.932Z,4.40
2023-05-07T21:07:21.079Z,4.85
2023-05-07T21:09:49.258Z,5.10
2023-05-07T21:12:17.416Z,5.13
2023-05-07T21:14:45.662Z,4.78
2023-05-07T21:17:13.814Z,4.43
2023-05-07T21:19:44.002Z,4.78
2023-05-07T21:22:12.136Z,4.45
2023-05-07T21:24:41.185Z,4.22
2023-05-07T21:27:09.379Z,4.53
2023-05-07T21:29:37.557Z,4.10
2023-05-07T21:32:06.511Z,4.07
2023-05-07T21:34:35.183Z,4.53
2023-05-07T21:37:04.955Z,4.30
2023-05-07T21:39:33.039Z,3.90
2023-05-07T21:42:01.180Z,5.00
2023-05-07T21:44:30.705Z,4.88
2023-05-07T21:46:58.796Z,3.90
2023-05-07T21:49:26.978Z,4.13
2023-05-07T21:51:55.129Z,4.28
2023-05-07T21:54:24.626Z,4.28
2023-05-07T21:56:52.783Z,4.60
2023-05-07T21:59:20.902Z,4.55
2023-05-07T22:01:49.054Z,4.00
2023-05-07T22:04:17.201Z,5.25
2023-05-07T22:06:45.383Z,4.60
2023-05-07T22:09:13.924Z,4.32
2023-05-07T22:11:43.563Z,4.65
2023-05-07T22:14:11.697Z,4.72
2023-05-07T22:16:40.127Z,4.53
2023-05-07T22:19:08.370Z,4.57
2023-05-07T22:21:36.560Z,4.05
2023-05-07T22:24:07.098Z,4.40
2023-05-07T22:26:35.402Z,4.10
2023-05-07T22:29:05.054Z,4.18
2023-05-07T22:31:33.233Z,4.57
2023-05-07T22:34:01.539Z,4.25
2023-05-07T22:36:29.715Z,4.30
2023-05-07T22:38:57.895Z,4.70
2023-05-07T22:41:26.489Z,4.57
2023-05-07T22:43:54.772Z,4.53
2023-05-07T22:46:24.829Z,4.18
2023-05-07T22:48:53.138Z,4.63
2023-05-07T22:51:21.593Z,3.95
2023-05-07T22:53:49.710Z,4.03
2023-05-07T22:56:17.863Z,4.53
2023-05-07T22:58:46.921Z,3.88
2023-05-07T23:01:18.518Z,4.78
2023-05-07T23:03:48.249Z,5.38
2023-05-07T23:06:16.428Z,4.45
2023-05-07T23:08:44.608Z,4.30
2023-05-07T23:11:12.700Z,4.53
2023-05-07T23:13:40.847Z,3.65
2023-05-07T23:16:09.133Z,4.70
2023-05-07T23:18:37.329Z,3.70
2023-05-07T23:21:07.605Z,4.28
2023-05-07T23:23:36.058Z,4.35
2023-05-07T23:26:04.298Z,4.18
2023-05-07T23:28:32.442Z,4.22
2023-05-07T23:31:00.715Z,3.88
2023-05-07T23:33:28.886Z,4.15
2023-05-07T23:36:00.918Z,4.10
2023-05-07T23:38:30.717Z,3.67
2023-05-07T23:40:58.880Z,4.78
2023-05-07T23:43:27.334Z,4.00
2023-05-07T23:45:55.746Z,4.70
2023-05-07T23:48:24.020Z,3.92
2023-05-07T23:50:52.282Z,4.07
2023-05-07T23:53:20.468Z,3.95
2023-05-07T23:55:50.006Z,3.80
2023-05-07T23:58:18.248Z,4.15
